Time;durP1;ratioP1;P1;durP2;ratioP2;P2;SDS_P1;SDS_P2;PMS_P1;PMS_P2;Temp;Humidity;BMP_temperature;BMP_pressure;BME280_temperature;BME280_humidity;BME280_pressure;Samples;Min_cycle;Max_cycle;Signal;HPM_P1;HPM_P2
2022/01/31 00:00:08;;;;;;;12.07;5.63;;;0.90;99.90;;;;;;5054649;28;20198;-72
2022/01/31 00:02:35;;;;;;;17.43;5.97;;;0.90;99.90;;;;;;5054640;28;20205;-72
2022/01/31 00:05:03;;;;;;;17.33;5.67;;;0.90;99.90;;;;;;5055669;28;20234;-72
2022/01/31 00:07:29;;;;;;;15.37;6.47;;;0.90;99.90;;;;;;5055597;28;20235;-72
2022/01/31 00:09:57;;;;;;;15.47;5.60;;;0.90;99.90;;;;;;5054790;28;20198;-72
2022/01/31 00:12:28;;;;;;;17.87;6.40;;;0.90;99.90;;;;;;5054517;28;20728;-72
2022/01/31 00:15:01;;;;;;;17.97;6.23;;;0.90;99.90;;;;;;5054534;28;20668;-72
2022/01/31 00:17:28;;;;;;;13.20;5.90;;;0.90;99.90;;;;;;5054273;28;20225;-72
2022/01/31 00:19:54;;;;;;;18.53;6.63;;;1.00;99.90;;;;;;5054644;28;20227;-72
2022/01/31 00:22:21;;;;;;;20.63;6.00;;;1.00;99.90;;;;;;5054893;28;20194;-71
2022/01/31 00:24:49;;;;;;;15.03;5.50;;;1.00;99.90;;;;;;5054682;28;20194;-72
2022/01/31 00:27:17;;;;;;;17.23;5.50;;;0.90;99.90;;;;;;5054540;28;20247;-71
2022/01/31 00:29:43;;;;;;;12.30;5.40;;;1.00;99.90;;;;;;5054187;28;20198;-72
2022/01/31 00:32:10;;;;;;;16.53;5.87;;;1.00;99.90;;;;;;5056990;28;20248;-72
2022/01/31 00:34:37;;;;;;;15.63;5.93;;;0.90;99.90;;;;;;5056568;28;20247;-72
2022/01/31 00:37:04;;;;;;;16.53;6.00;;;0.90;99.90;;;;;;5058762;28;20237;-72
2022/01/31 00:39:34;;;;;;;12.83;5.70;;;0.80;99.90;;;;;;5059758;28;20201;-72
2022/01/31 00:42:02;;;;;;;12.40;5.37;;;0.80;99.90;;;;;;5058456;28;20280;-72
2022/01/31 00:44:40;;;;;;;15.57;6.17;;;0.80;99.90;;;;;;5057767;28;20205;-72
2022/01/31 00:47:17;;;;;;;14.70;5.50;;;0.80;99.90;;;;;;5058150;28;20197;-72
2022/01/31 00:49:49;;;;;;;20.23;5.60;;;0.80;99.90;;;;;;5055842;28;20197;-72
2022/01/31 00:52:16;;;;;;;13.60;5.90;;;0.80;99.90;;;;;;5054273;28;20235;-72
2022/01/31 00:54:43;;;;;;;19.63;5.37;;;0.80;99.90;;;;;;5053600;28;20604;-73
2022/01/31 00:57:10;;;;;;;15.50;5.60;;;0.80;99.90;;;;;;5053222;28;20221;-73
2022/01/31 00:59:38;;;;;;;16.37;5.13;;;0.80;99.90;;;;;;5053778;28;20197;-72
2022/01/31 01:02:05;;;;;;;11.70;5.37;;;0.80;99.90;;;;;;5053622;28;20198;-72
2022/01/31 01:04:31;;;;;;;12.53;4.97;;;0.80;99.90;;;;;;5053577;28;20236;-72
2022/01/31 01:06:58;;;;;;;11.33;4.90;;;0.80;99.90;;;;;;5053460;28;20197;-72
2022/01/31 01:09:25;;;;;;;17.93;7.13;;;0.80;99.90;;;;;;5053670;28;20231;-72
2022/01/31 01:11:51;;;;;;;12.13;5.63;;;0.90;99.90;;;;;;5053810;28;20205;-72
2022/01/31 01:14:18;;;;;;;16.50;5.63;;;0.90;99.90;;;;;;5053285;28;20255;-72
2022/01/31 01:16:46;;;;;;;14.93;5.60;;;0.90;99.90;;;;;;5053267;28;20743;-72
2022/01/31 01:19:13;;;;;;;13.23;5.10;;;0.90;99.90;;;;;;5053192;28;20649;-72
2022/01/31 01:21:39;;;;;;;13.33;5.10;;;0.90;99.90;;;;;;5053215;28;20197;-72
2022/01/31 01:24:06;;;;;;;15.00;5.70;;;0.90;99.90;;;;;;5053455;28;20197;-72
2022/01/31 01:26:33;;;;;;;12.43;5.03;;;0.90;99.90;;;;;;5053334;28;20201;-72
2022/01/31 01:28:59;;;;;;;10.83;4.90;;;0.90;99.90;;;;;;5053355;28;20206;-72
2022/01/31 01:31:27;;;;;;;21.10;5.90;;;0.90;99.90;;;;;;5053503;28;20251;-72
2022/01/31 01:33:55;;;;;;;14.10;5.30;;;1.00;99.90;;;;;;5057048;28;20200;-72
2022/01/31 01:36:21;;;;;;;18.30;5.30;;;0.90;99.90;;;;;;5052956;28;20222;-72
2022/01/31 01:38:48;;;;;;;13.00;5.73;;;0.90;99.90;;;;;;5053178;28;20198;-72
2022/01/31 01:41:16;;;;;;;17.13;6.33;;;0.90;99.90;;;;;;5053091;28;20653;-72
2022/01/31 01:43:43;;;;;;;14.07;5.97;;;0.90;99.90;;;;;;5053199;28;20251;-72
2022/01/31 01:46:09;;;;;;;14.97;5.47;;;0.90;99.90;;;;;;5053104;28;20258;-72
2022/01/31 01:48:36;;;;;;;13.47;5.23;;;0.90;99.90;;;;;;5053037;28;20232;-72
2022/01/31 01:51:05;;;;;;;12.83;5.27;;;0.90;99.90;;;;;;5052960;28;20243;-72
2022/01/31 01:53:32;;;;;;;13.30;5.57;;;0.90;99.90;;;;;;5053241;28;20657;-72
2022/01/31 01:55:59;;;;;;;17.00;6.10;;;0.80;99.90;;;;;;5052997;28;20197;-72
2022/01/31 01:58:36;;;;;;;13.53;5.63;;;0.90;99.90;;;;;;5053244;28;20226;-72
2022/01/31 02:01:03;;;;;;;12.10;5.80;;;0.90;99.90;;;;;;5053025;28;20201;-72
2022/01/31 02:03:31;;;;;;;17.77;5.37;;;0.90;99.90;;;;;;5052703;28;20201;-72
2022/01/31 02:05:58;;;;;;;14.30;5.80;;;0.80;99.90;;;;;;5053172;28;20194;-72
2022/01/31 02:08:28;;;;;;;14.53;5.90;;;0.80;99.90;;;;;;5055318;28;20201;-72
2022/01/31 02:10:55;;;;;;;17.30;5.23;;;0.80;99.90;;;;;;5057229;28;20202;-72
2022/01/31 02:13:22;;;;;;;12.40;5.73;;;0.80;99.90;;;;;;5057103;28;20197;-72
2022/01/31 02:15:51;;;;;;;12.27;4.97;;;0.80;99.90;;;;;;5056946;28;20275;-72
2022/01/31 02:18:21;;;;;;;13.30;5.97;;;0.80;99.90;;;;;;5056561;28;20225;-72
2022/01/31 02:20:49;;;;;;;12.23;5.67;;;0.80;99.90;;;;;;5056757;28;20201;-72
2022/01/31 02:23:17;;;;;;;17.50;6.50;;;0.80;99.90;;;;;;5056600;28;20220;-72
2022/01/31 02:25:56;;;;;;;13.23;6.47;;;0.80;99.90;;;;;;5056511;28;20542;-72
2022/01/31 02:28:25;;;;;;;16.17;6.23;;;0.90;99.90;;;;;;5060100;28;20197;-72
2022/01/31 02:30:53;;;;;;;16.47;5.90;;;0.90;99.90;;;;;;5056626;28;20197;-72
2022/01/31 02:33:20;;;;;;;14.10;5.73;;;0.90;99.90;;;;;;5056207;28;20665;-72
2022/01/31 02:35:48;;;;;;;12.53;5.33;;;0.90;99.90;;;;;;5055973;28;20312;-72
2022/01/31 02:38:16;;;;;;;20.10;6.43;;;1.00;99.90;;;;;;5056231;28;20271;-72
2022/01/31 02:40:44;;;;;;;15.47;6.17;;;0.90;99.90;;;;;;5056148;28;20592;-72
2022/01/31 02:43:12;;;;;;;16.93;5.90;;;0.90;99.90;;;;;;5055835;28;20293;-72
2022/01/31 02:45:38;;;;;;;14.43;5.57;;;0.90;99.90;;;;;;5056320;28;20193;-72
2022/01/31 02:48:05;;;;;;;15.83;5.87;;;0.90;99.90;;;;;;5056030;28;20201;-72
2022/01/31 02:50:32;;;;;;;11.40;6.30;;;1.00;99.90;;;;;;5055729;28;20206;-72
2022/01/31 02:53:11;;;;;;;15.30;5.87;;;1.00;99.90;;;;;;5055980;28;20205;-72
2022/01/31 02:55:39;;;;;;;21.03;5.57;;;0.90;99.90;;;;;;5055824;28;20197;-72
2022/01/31 02:58:06;;;;;;;13.97;5.50;;;0.90;99.90;;;;;;5055877;28;20271;-72
2022/01/31 03:00:33;;;;;;;15.20;6.33;;;0.90;99.90;;;;;;5055690;28;20197;-72
2022/01/31 03:02:59;;;;;;;14.73;4.87;;;0.90;99.90;;;;;;5055856;28;20202;-72
2022/01/31 03:05:26;;;;;;;13.53;5.43;;;0.90;99.90;;;;;;5055894;28;20620;-72
2022/01/31 03:07:53;;;;;;;13.67;5.27;;;0.90;99.90;;;;;;5055877;28;20206;-72
2022/01/31 03:10:21;;;;;;;14.90;5.37;;;0.90;99.90;;;;;;5056088;28;20531;-72
2022/01/31 03:12:47;;;;;;;16.50;5.63;;;1.00;99.90;;;;;;5056361;28;20216;-72
2022/01/31 03:15:14;;;;;;;16.27;5.53;;;1.00;99.90;;;;;;5055875;28;20202;-72
2022/01/31 03:17:46;;;;;;;9.53;5.53;;;1.00;99.90;;;;;;5058548;28;20229;-72
2022/01/31 03:20:13;;;;;;;16.97;5.27;;;1.00;99.90;;;;;;5060281;28;20256;-72
2022/01/31 03:22:40;;;;;;;19.07;5.37;;;1.00;99.90;;;;;;5060556;28;20236;-72
2022/01/31 03:25:07;;;;;;;11.47;4.87;;;1.00;99.90;;;;;;5060165;28;20202;-72
2022/01/31 03:27:35;;;;;;;9.63;4.97;;;1.00;99.90;;;;;;5058381;28;20235;-72
2022/01/31 03:30:02;;;;;;;15.47;5.27;;;1.10;99.90;;;;;;5056933;28;20202;-72
2022/01/31 03:32:28;;;;;;;13.03;5.20;;;1.10;99.90;;;;;;5055362;28;20600;-72
2022/01/31 03:34:55;;;;;;;15.03;5.40;;;1.10;99.90;;;;;;5055445;28;20197;-72
2022/01/31 03:37:22;;;;;;;11.83;5.07;;;1.20;99.90;;;;;;5055210;28;20241;-72
2022/01/31 03:39:48;;;;;;;17.63;5.50;;;1.10;99.90;;;;;;5055079;28;20264;-72
2022/01/31 03:42:18;;;;;;;13.00;4.57;;;1.10;99.90;;;;;;5055113;28;20271;-72
2022/01/31 03:44:47;;;;;;;18.73;5.60;;;1.20;99.90;;;;;;5054918;28;20220;-72
2022/01/31 03:47:13;;;;;;;15.43;5.30;;;1.20;99.90;;;;;;5054512;28;20642;-72
2022/01/31 03:49:40;;;;;;;11.67;4.77;;;1.20;99.90;;;;;;5054676;28;20565;-72
2022/01/31 03:52:07;;;;;;;10.10;4.37;;;1.20;99.90;;;;;;5054903;28;20632;-72
2022/01/31 03:54:34;;;;;;;13.83;4.93;;;1.30;99.90;;;;;;5054633;28;20707;-72
2022/01/31 03:57:00;;;;;;;13.17;5.50;;;1.30;99.90;;;;;;5054911;28;20205;-72
2022/01/31 03:59:27;;;;;;;12.70;5.10;;;1.30;99.90;;;;;;5054122;28;20846;-72
2022/01/31 04:01:56;;;;;;;15.17;5.20;;;1.30;99.90;;;;;;5054251;28;20675;-72
2022/01/31 04:04:23;;;;;;;13.47;4.93;;;1.30;99.90;;;;;;5055158;28;20201;-74
2022/01/31 04:06:50;;;;;;;18.07;5.30;;;1.30;99.90;;;;;;5054650;28;20558;-73
2022/01/31 04:09:17;;;;;;;19.07;5.37;;;1.30;99.90;;;;;;5054594;28;20202;-73
2022/01/31 04:11:45;;;;;;;12.47;4.27;;;1.30;99.90;;;;;;5054337;28;20201;-73
2022/01/31 04:14:12;;;;;;;11.73;4.57;;;1.40;99.90;;;;;;5054179;28;20656;-73
2022/01/31 04:16:39;;;;;;;11.47;4.43;;;1.40;99.90;;;;;;5054801;28;20599;-71
2022/01/31 04:19:07;;;;;;;10.80;4.23;;;1.40;99.90;;;;;;5055118;28;20233;-71
2022/01/31 04:21:33;;;;;;;14.50;4.73;;;1.40;99.90;;;;;;5054772;28;20204;-72
2022/01/31 04:24:00;;;;;;;18.20;5.17;;;1.50;99.90;;;;;;5054605;28;20198;-72
2022/01/31 04:26:32;;;;;;;15.80;4.63;;;1.60;99.90;;;;;;5054701;28;20204;-72
2022/01/31 04:29:05;;;;;;;13.33;5.13;;;1.60;99.90;;;;;;5054226;28;20612;-72
2022/01/31 04:31:44;;;;;;;15.30;5.20;;;1.60;99.90;;;;;;5053210;28;20665;-72
2022/01/31 04:34:12;;;;;;;18.27;5.60;;;1.60;99.90;;;;;;5053928;28;20194;-72
2022/01/31 04:36:39;;;;;;;10.17;4.60;;;1.70;99.90;;;;;;5053770;28;20229;-73
2022/01/31 04:39:05;;;;;;;11.10;4.30;;;1.70;99.90;;;;;;5053763;28;20233;-73
2022/01/31 04:41:32;;;;;;;15.73;4.80;;;1.70;99.90;;;;;;5053771;28;20578;-72
2022/01/31 04:44:05;;;;;;;9.93;4.40;;;1.70;99.90;;;;;;5053534;28;20204;-72
2022/01/31 04:46:32;;;;;;;14.47;5.10;;;1.70;99.90;;;;;;5053834;28;20687;-72
2022/01/31 04:48:58;;;;;;;9.37;4.37;;;1.70;99.90;;;;;;5053824;28;20197;-72
2022/01/31 04:51:26;;;;;;;15.23;4.53;;;1.70;99.90;;;;;;5053571;28;20711;-72
2022/01/31 04:53:53;;;;;;;14.20;4.90;;;1.70;99.90;;;;;;5053648;28;20206;-72
2022/01/31 04:56:19;;;;;;;15.37;4.93;;;1.70;99.90;;;;;;5053350;28;20210;-72
2022/01/31 04:58:46;;;;;;;11.17;4.17;;;1.70;99.90;;;;;;5053641;28;20221;-73
2022/01/31 05:01:13;;;;;;;14.13;4.50;;;1.70;99.90;;;;;;5053570;28;20201;-73
2022/01/31 05:03:40;;;;;;;11.47;4.50;;;1.70;99.90;;;;;;5053487;28;20228;-72
2022/01/31 05:06:08;;;;;;;14.53;4.57;;;1.70;99.90;;;;;;5053243;28;20252;-71
2022/01/31 05:08:38;;;;;;;10.43;4.60;;;1.80;99.90;;;;;;5053565;28;20201;-72
2022/01/31 05:11:07;;;;;;;16.47;5.10;;;1.80;99.90;;;;;;5053516;28;20225;-72
2022/01/31 05:13:36;;;;;;;13.17;5.07;;;1.70;99.90;;;;;;5057931;28;20705;-72
2022/01/31 05:16:04;;;;;;;16.57;5.47;;;1.80;99.90;;;;;;5053401;28;20197;-72
2022/01/31 05:18:30;;;;;;;14.60;4.77;;;1.80;99.90;;;;;;5053293;28;20225;-72
2022/01/31 05:20:57;;;;;;;13.40;5.00;;;1.80;99.90;;;;;;5053099;28;20202;-72
2022/01/31 05:23:24;;;;;;;11.37;4.40;;;1.80;99.90;;;;;;5052996;28;20198;-72
2022/01/31 05:25:52;;;;;;;14.57;5.83;;;1.90;99.90;;;;;;5053102;28;20232;-72
2022/01/31 05:28:18;;;;;;;15.57;5.00;;;1.90;99.90;;;;;;5053408;28;20202;-72
2022/01/31 05:30:45;;;;;;;13.83;5.87;;;1.90;99.90;;;;;;5053172;28;20205;-71
2022/01/31 05:33:12;;;;;;;11.83;5.27;;;1.90;99.90;;;;;;5053233;28;20202;-72
2022/01/31 05:35:38;;;;;;;12.13;5.37;;;1.90;99.90;;;;;;5052925;28;20355;-72
2022/01/31 05:38:05;;;;;;;11.50;5.43;;;2.00;99.90;;;;;;5052955;28;20229;-72
2022/01/31 05:40:32;;;;;;;13.43;6.57;;;2.00;99.90;;;;;;5053275;28;20201;-72
2022/01/31 05:43:00;;;;;;;14.57;5.00;;;2.00;99.90;;;;;;5056454;28;20201;-72
2022/01/31 05:45:27;;;;;;;17.80;6.50;;;2.00;99.90;;;;;;5057146;28;20197;-72
2022/01/31 05:47:54;;;;;;;16.57;6.23;;;2.00;99.90;;;;;;5057128;28;20283;-72
2022/01/31 05:50:20;;;;;;;21.30;5.83;;;2.00;99.90;;;;;;5057033;28;20198;-71
2022/01/31 05:52:47;;;;;;;9.40;5.63;;;2.00;99.90;;;;;;5056898;28;20197;-73
2022/01/31 05:55:15;;;;;;;15.13;5.60;;;2.10;99.90;;;;;;5057091;28;20194;-73
2022/01/31 05:57:43;;;;;;;13.07;5.70;;;2.10;99.90;;;;;;5057302;28;20198;-75
2022/01/31 06:00:13;;;;;;;17.87;6.10;;;2.10;99.90;;;;;;5057461;28;20229;-72
2022/01/31 06:02:40;;;;;;;11.50;5.17;;;2.10;99.90;;;;;;5056983;28;20255;-71
2022/01/31 06:05:07;;;;;;;15.67;6.13;;;2.10;99.90;;;;;;5056814;28;20208;-72
2022/01/31 06:07:34;;;;;;;12.70;6.10;;;2.20;99.90;;;;;;5059500;28;20251;-72
2022/01/31 06:10:01;;;;;;;15.70;5.70;;;2.20;99.90;;;;;;5057941;28;20259;-72
2022/01/31 06:12:27;;;;;;;12.37;6.07;;;2.30;99.90;;;;;;5058109;28;20194;-76
2022/01/31 06:14:54;;;;;;;9.47;5.20;;;2.30;99.90;;;;;;5056532;28;20225;-72
2022/01/31 06:17:22;;;;;;;16.97;5.73;;;2.30;99.90;;;;;;5056654;28;20197;-73
2022/01/31 06:19:48;;;;;;;13.60;5.27;;;2.30;99.90;;;;;;5056345;28;20566;-73
2022/01/31 06:22:15;;;;;;;11.77;5.17;;;2.30;99.90;;;;;;5056863;28;20202;-72
2022/01/31 06:24:42;;;;;;;15.20;5.43;;;2.30;99.90;;;;;;5057244;28;20275;-72
2022/01/31 06:27:08;;;;;;;13.53;5.27;;;2.30;99.90;;;;;;5056679;28;20722;-72
2022/01/31 06:29:35;;;;;;;14.70;5.93;;;2.30;99.90;;;;;;5056789;28;20255;-72
2022/01/31 06:32:02;;;;;;;15.27;4.43;;;2.30;99.90;;;;;;5056525;28;20202;-72
2022/01/31 06:34:30;;;;;;;13.77;5.43;;;2.20;99.90;;;;;;5056495;28;20198;-72
2022/01/31 06:36:57;;;;;;;15.03;6.00;;;2.10;99.90;;;;;;5056118;28;20233;-73
2022/01/31 06:39:24;;;;;;;8.63;4.67;;;2.10;99.90;;;;;;5056838;28;20267;-72
2022/01/31 06:41:51;;;;;;;10.63;5.23;;;2.00;99.90;;;;;;5056372;28;20197;-71
2022/01/31 06:44:17;;;;;;;16.63;5.17;;;1.90;99.90;;;;;;5056249;28;20284;-71
2022/01/31 06:46:44;;;;;;;13.43;5.33;;;1.80;99.90;;;;;;5056348;28;20201;-71
2022/01/31 06:49:11;;;;;;;15.83;6.90;;;1.70;99.90;;;;;;5057725;28;20255;-77
2022/01/31 06:51:38;;;;;;;17.43;5.90;;;1.60;99.90;;;;;;5054779;28;20197;-71
2022/01/31 06:54:06;;;;;;;13.57;7.20;;;1.40;99.90;;;;;;5054354;28;20202;-71
2022/01/31 06:56:38;;;;;;;17.17;7.10;;;1.30;99.90;;;;;;5054966;28;20593;-71
2022/01/31 06:59:04;;;;;;;16.87;6.97;;;1.30;99.90;;;;;;5051587;28;20623;-71
2022/01/31 07:01:31;;;;;;;18.60;8.03;;;1.10;99.90;;;;;;5053008;28;20427;-71
2022/01/31 07:03:58;;;;;;;23.93;7.30;;;1.00;99.90;;;;;;5054484;28;20209;-70
2022/01/31 07:06:25;;;;;;;15.67;7.37;;;1.00;99.90;;;;;;5053875;28;20248;-70
2022/01/31 07:08:53;;;;;;;20.40;8.00;;;0.90;99.90;;;;;;5053782;28;20209;-70
2022/01/31 07:11:23;;;;;;;17.00;7.50;;;0.80;99.90;;;;;;5053842;28;20204;-70
2022/01/31 07:14:00;;;;;;;15.63;7.67;;;0.80;99.90;;;;;;5053958;28;20206;-70
2022/01/31 07:16:27;;;;;;;18.63;8.47;;;0.80;99.90;;;;;;5053804;28;20599;-70
2022/01/31 07:18:59;;;;;;;16.97;8.30;;;0.80;99.90;;;;;;5053705;28;20275;-70
2022/01/31 07:21:33;;;;;;;16.27;7.80;;;0.80;99.90;;;;;;5054533;28;20251;-69
2022/01/31 07:24:18;;;;;;;21.60;8.40;;;0.90;99.90;;;;;;5055217;28;20193;-69
2022/01/31 07:26:45;;;;;;;16.67;7.73;;;0.90;99.90;;;;;;5054833;28;20504;-68
2022/01/31 07:29:11;;;;;;;15.50;8.33;;;0.80;99.90;;;;;;5054956;28;20214;-69
2022/01/31 07:31:38;;;;;;;15.03;9.33;;;0.80;99.90;;;;;;5054302;28;20202;-68
2022/01/31 07:34:05;;;;;;;17.40;8.67;;;0.80;99.90;;;;;;5054140;28;20292;-68
2022/01/31 07:36:32;;;;;;;14.37;8.97;;;0.70;99.90;;;;;;5055379;28;20245;-69
2022/01/31 07:38:59;;;;;;;20.63;10.10;;;0.80;99.90;;;;;;5054540;28;20229;-69
2022/01/31 07:41:28;;;;;;;14.23;7.80;;;0.70;99.90;;;;;;5056534;28;20201;-69
2022/01/31 07:43:54;;;;;;;13.57;7.20;;;0.70;99.90;;;;;;5056086;28;20201;-69
2022/01/31 07:46:21;;;;;;;16.00;8.37;;;0.70;99.90;;;;;;5055904;28;20300;-70
2022/01/31 07:48:49;;;;;;;10.90;7.67;;;0.70;99.90;;;;;;5056139;28;20206;-70
2022/01/31 07:51:17;;;;;;;11.43;7.67;;;0.70;99.90;;;;;;5056982;28;20255;-70
2022/01/31 07:53:43;;;;;;;13.27;7.93;;;0.70;99.90;;;;;;5056832;28;20255;-69
2022/01/31 07:56:11;;;;;;;14.93;7.57;;;0.70;99.90;;;;;;5055243;28;20208;-69
2022/01/31 07:58:39;;;;;;;10.60;7.23;;;0.70;99.90;;;;;;5054984;28;20280;-69
2022/01/31 08:01:07;;;;;;;13.73;7.53;;;0.70;99.90;;;;;;5054970;28;20255;-70
2022/01/31 08:03:34;;;;;;;8.97;6.60;;;0.70;99.90;;;;;;5055114;28;20292;-70
2022/01/31 08:06:02;;;;;;;10.33;7.03;;;0.70;99.90;;;;;;5053803;28;20201;-70
2022/01/31 08:08:30;;;;;;;9.00;6.50;;;0.80;99.90;;;;;;5055343;28;20197;-70
2022/01/31 08:10:56;;;;;;;10.37;6.80;;;0.80;99.90;;;;;;5054449;28;20657;-69
2022/01/31 08:13:24;;;;;;;10.10;7.13;;;0.80;99.90;;;;;;5055498;28;20545;-69
2022/01/31 08:16:02;;;;;;;9.47;6.07;;;0.80;99.90;;;;;;5055097;28;20284;-69
2022/01/31 08:18:29;;;;;;;10.03;6.47;;;0.80;99.90;;;;;;5054983;28;20285;-69
2022/01/31 08:20:56;;;;;;;9.10;6.33;;;0.80;99.90;;;;;;5054656;28;20233;-70
2022/01/31 08:23:23;;;;;;;7.90;6.40;;;0.70;99.90;;;;;;5054607;28;20654;-68
2022/01/31 08:25:50;;;;;;;8.50;6.17;;;0.80;99.90;;;;;;5054647;28;20347;-69
2022/01/31 08:28:19;;;;;;;8.43;5.97;;;0.70;99.90;;;;;;5056301;28;20224;-70
2022/01/31 08:30:52;;;;;;;9.70;6.87;;;0.70;99.90;;;;;;5057231;28;20259;-69
2022/01/31 08:33:35;;;;;;;8.93;5.83;;;0.70;99.90;;;;;;5057566;28;20203;-69
2022/01/31 08:36:02;;;;;;;6.60;5.23;;;0.70;99.90;;;;;;5058105;28;20229;-69
2022/01/31 08:38:30;;;;;;;6.77;5.90;;;0.70;99.90;;;;;;5057506;28;20198;-69
2022/01/31 08:40:57;;;;;;;8.13;5.43;;;0.80;99.90;;;;;;5056887;28;20228;-69
2022/01/31 08:43:24;;;;;;;7.20;5.17;;;0.80;99.90;;;;;;5056712;28;20228;-68
2022/01/31 08:45:55;;;;;;;8.20;5.70;;;0.80;99.90;;;;;;5056233;28;20197;-70
2022/01/31 08:48:23;;;;;;;7.20;5.30;;;0.90;99.90;;;;;;5057138;28;20281;-70
2022/01/31 08:50:50;;;;;;;6.23;5.00;;;1.00;99.90;;;;;;5058710;28;20193;-69
2022/01/31 08:53:17;;;;;;;7.83;5.27;;;1.10;99.90;;;;;;5058451;28;20255;-70
2022/01/31 08:55:48;;;;;;;7.20;5.67;;;1.20;99.90;;;;;;5057758;28;20197;-69
2022/01/31 08:58:15;;;;;;;6.93;5.17;;;1.20;99.90;;;;;;5057334;28;20208;-70
2022/01/31 09:00:42;;;;;;;7.70;5.93;;;1.30;99.90;;;;;;5058526;28;20230;-70
2022/01/31 09:03:22;;;;;;;7.13;6.10;;;1.30;99.90;;;;;;5055460;28;20198;-70
2022/01/31 09:05:50;;;;;;;9.13;5.90;;;1.50;99.90;;;;;;5057027;28;20403;-69
2022/01/31 09:08:17;;;;;;;7.37;5.97;;;1.70;99.90;;;;;;5056977;28;20202;-69
2022/01/31 09:10:44;;;;;;;7.90;5.67;;;1.90;99.90;;;;;;5057483;28;20206;-70
2022/01/31 09:13:12;;;;;;;9.67;5.60;;;1.90;99.90;;;;;;5055448;28;20198;-70
2022/01/31 09:15:39;;;;;;;5.90;4.97;;;2.00;99.90;;;;;;5054105;28;20198;-68
2022/01/31 09:18:07;;;;;;;7.67;4.63;;;2.00;99.90;;;;;;5053520;28;20596;-70
2022/01/31 09:20:34;;;;;;;8.40;5.53;;;2.10;99.90;;;;;;5053553;28;20686;-71
2022/01/31 09:23:02;;;;;;;7.73;5.00;;;2.20;99.90;;;;;;5053327;28;20201;-71
2022/01/31 09:25:30;;;;;;;8.93;5.17;;;2.30;99.90;;;;;;5053626;28;20198;-71
2022/01/31 09:27:56;;;;;;;7.20;5.00;;;2.30;99.90;;;;;;5053345;28;20684;-71
2022/01/31 09:30:23;;;;;;;7.87;5.03;;;2.20;99.90;;;;;;5053952;28;20267;-71
2022/01/31 09:32:50;;;;;;;8.33;5.10;;;2.10;99.90;;;;;;5053416;28;20193;-71
2022/01/31 09:35:16;;;;;;;6.23;4.80;;;2.00;99.90;;;;;;5053120;28;20198;-71
2022/01/31 09:37:43;;;;;;;6.60;4.57;;;2.10;99.90;;;;;;5053475;28;20197;-71
2022/01/31 09:40:17;;;;;;;8.37;5.30;;;2.10;99.90;;;;;;5053475;28;20229;-71
2022/01/31 09:43:03;;;;;;;5.90;4.87;;;2.30;99.90;;;;;;5053315;28;20220;-71
2022/01/31 09:45:48;;;;;;;6.70;4.43;;;2.20;99.90;;;;;;5053140;28;20220;-71
2022/01/31 09:48:32;;;;;;;5.53;4.30;;;2.30;99.90;;;;;;5054327;28;20197;-71
2022/01/31 09:51:00;;;;;;;8.37;4.50;;;2.30;99.90;;;;;;5053471;28;20201;-70
2022/01/31 09:53:28;;;;;;;6.10;5.17;;;2.30;99.90;;;;;;5053189;28;20291;-71
2022/01/31 09:55:56;;;;;;;5.60;4.60;;;2.30;99.90;;;;;;5053204;28;20327;-71
2022/01/31 09:58:24;;;;;;;6.57;4.23;;;2.30;99.90;;;;;;5053205;28;20224;-71
2022/01/31 10:01:07;;;;;;;8.40;4.83;;;2.40;99.90;;;;;;5053295;28;20312;-71
2022/01/31 10:03:43;;;;;;;8.40;4.33;;;2.50;99.90;;;;;;5053043;28;20266;-71
2022/01/31 10:06:19;;;;;;;6.07;4.20;;;2.60;99.90;;;;;;5053091;28;20240;-71
2022/01/31 10:08:46;;;;;;;4.43;3.97;;;2.60;99.90;;;;;;5052861;28;20644;-71
2022/01/31 10:11:28;;;;;;;5.60;4.23;;;2.60;99.90;;;;;;5053803;28;20206;-71
2022/01/31 10:16:46;;;;;;;10.00;4.37;;;2.60;99.90;;;;;;5053276;28;20621;-71
2022/01/31 10:19:15;;;;;;;9.53;4.53;;;2.70;99.90;;;;;;5053148;28;20201;-71
2022/01/31 10:21:56;;;;;;;6.80;4.50;;;2.60;99.90;;;;;;5053111;28;20653;-71
2022/01/31 10:24:24;;;;;;;31.30;17.67;;;2.70;99.90;;;;;;5052953;28;20198;-71
2022/01/31 10:26:53;;;;;;;5.37;4.33;;;2.70;99.90;;;;;;5053100;28;20194;-71
2022/01/31 10:29:21;;;;;;;6.77;4.80;;;2.70;99.90;;;;;;5055362;28;20202;-71
2022/01/31 10:31:56;;;;;;;5.90;4.40;;;2.80;99.90;;;;;;5056700;28;20198;-71
2022/01/31 10:34:25;;;;;;;7.93;4.20;;;2.80;99.90;;;;;;5057219;28;20198;-71
2022/01/31 10:36:52;;;;;;;5.23;3.90;;;2.80;99.90;;;;;;5056314;28;20222;-71
2022/01/31 10:54:28;;;;;;;5.83;4.03;;;2.90;99.90;;;;;;5056098;28;20196;-72
2022/01/31 10:56:57;;;;;;;4.80;3.13;;;2.90;99.90;;;;;;5056028;28;20205;-72
2022/01/31 10:59:28;;;;;;;5.10;3.93;;;2.80;99.90;;;;;;5055795;28;20198;-71
2022/01/31 11:01:58;;;;;;;6.70;4.33;;;2.80;99.90;;;;;;5056019;28;20212;-71
2022/01/31 11:04:29;;;;;;;7.97;4.37;;;2.80;99.90;;;;;;5055796;28;20259;-70
2022/01/31 11:07:00;;;;;;;5.40;4.00;;;2.80;99.90;;;;;;5055573;28;20215;-71
2022/01/31 11:09:26;;;;;;;9.20;4.20;;;2.80;99.90;;;;;;5055956;28;20186;-71
2022/01/31 11:11:53;;;;;;;6.40;4.60;;;2.70;99.90;;;;;;5055688;28;20193;-71
2022/01/31 11:14:21;;;;;;;10.13;4.90;;;2.70;99.90;;;;;;5055632;28;20271;-71
2022/01/31 11:16:50;;;;;;;7.67;4.70;;;2.60;99.90;;;;;;5055473;28;20225;-71
2022/01/31 11:19:23;;;;;;;7.37;4.83;;;2.50;99.90;;;;;;5055397;28;20719;-70
2022/01/31 11:21:52;;;;;;;5.73;4.67;;;2.40;99.90;;;;;;5055460;28;20260;-71
2022/01/31 11:24:23;;;;;;;6.43;5.33;;;2.40;99.90;;;;;;5055559;28;20263;-72
2022/01/31 11:26:52;;;;;;;7.60;5.30;;;2.40;99.90;;;;;;5055398;28;20260;-71
2022/01/31 11:29:19;;;;;;;9.03;5.40;;;2.30;99.90;;;;;;5055346;28;20604;-72
2022/01/31 11:31:47;;;;;;;5.87;4.23;;;2.40;99.90;;;;;;5055377;28;20584;-71
2022/01/31 11:34:15;;;;;;;7.07;4.37;;;2.30;99.90;;;;;;5055114;28;20243;-70
2022/01/31 11:36:43;;;;;;;6.43;5.40;;;2.30;99.90;;;;;;5055406;28;20225;-71
2022/01/31 11:39:14;;;;;;;8.37;5.60;;;2.30;99.90;;;;;;5055205;28;20243;-71
2022/01/31 11:41:45;;;;;;;5.83;5.23;;;2.30;99.90;;;;;;5054984;28;20251;-71
2022/01/31 11:44:20;;;;;;;6.07;5.43;;;2.30;99.90;;;;;;5054866;28;20597;-71
2022/01/31 11:46:47;;;;;;;9.53;5.07;;;2.30;99.90;;;;;;5054808;28;20201;-71
2022/01/31 11:49:16;;;;;;;8.40;5.47;;;2.40;99.90;;;;;;5054995;28;20648;-70
2022/01/31 11:52:07;;;;;;;5.30;4.80;;;2.30;99.90;;;;;;5054887;28;20206;-71
2022/01/31 11:54:37;;;;;;;8.63;4.97;;;2.30;99.90;;;;;;5054927;28;20208;-70
2022/01/31 11:57:13;;;;;;;8.90;5.53;;;2.30;99.90;;;;;;5054703;28;20757;-71
2022/01/31 11:59:40;;;;;;;6.17;4.77;;;2.40;99.90;;;;;;5054679;28;20205;-71
2022/01/31 12:02:07;;;;;;;4.90;4.20;;;2.40;99.90;;;;;;5054685;28;20669;-71
2022/01/31 12:04:35;;;;;;;4.90;4.40;;;2.40;99.90;;;;;;5054904;28;20255;-70
2022/01/31 12:07:32;;;;;;;9.33;5.00;;;2.50;99.90;;;;;;5054381;28;20198;-70
2022/01/31 12:10:01;;;;;;;6.13;4.93;;;2.60;99.90;;;;;;5054308;28;20198;-71
2022/01/31 12:12:36;;;;;;;7.00;4.67;;;2.80;99.90;;;;;;5054483;28;20198;-71
2022/01/31 12:18:47;;;;;;;6.93;4.50;;;2.90;99.90;;;;;;5051662;28;20564;-70
2022/01/31 12:24:09;;;;;;;6.37;4.53;;;3.10;99.90;;;;;;5044003;28;20335;-70
2022/01/31 12:26:49;;;;;;;8.17;5.60;;;3.00;99.90;;;;;;5055116;28;20351;-71
2022/01/31 12:29:17;;;;;;;5.43;4.30;;;3.10;99.90;;;;;;5054930;28;20675;-71
2022/01/31 12:31:47;;;;;;;4.60;3.73;;;3.10;99.90;;;;;;5054813;28;20202;-70
2022/01/31 12:34:36;;;;;;;7.40;4.40;;;3.10;99.90;;;;;;5054747;28;20286;-69
2022/01/31 12:37:15;;;;;;;8.30;5.30;;;3.10;99.90;;;;;;5054475;28;20237;-69
2022/01/31 12:39:58;;;;;;;5.10;4.10;;;3.10;99.90;;;;;;5054313;28;20251;-70
2022/01/31 12:46:07;;;;;;;5.37;4.20;;;3.10;99.90;;;;;;5054330;28;20208;-70
2022/01/31 12:48:35;;;;;;;6.17;5.03;;;3.00;99.90;;;;;;5058733;28;20507;-70
2022/01/31 12:51:05;;;;;;;5.67;4.37;;;3.00;99.90;;;;;;5053656;28;20200;-70
2022/01/31 12:53:54;;;;;;;6.37;4.17;;;2.80;99.90;;;;;;5053991;28;20232;-70
2022/01/31 12:56:25;;;;;;;8.07;5.00;;;2.70;99.90;;;;;;5054046;28;20197;-69
2022/01/31 12:58:55;;;;;;;6.20;5.00;;;2.60;99.90;;;;;;5054188;28;20199;-69
2022/01/31 13:01:24;;;;;;;9.30;5.10;;;2.50;99.90;;;;;;5053826;28;20558;-69
2022/01/31 13:03:52;;;;;;;11.23;4.80;;;2.50;99.90;;;;;;5054213;28;20201;-69
2022/01/31 13:06:35;;;;;;;6.27;4.37;;;2.50;99.90;;;;;;5054427;28;20251;-69
2022/01/31 13:09:06;;;;;;;8.17;5.10;;;2.40;99.90;;;;;;5054141;28;20205;-69
2022/01/31 13:11:33;;;;;;;6.87;4.93;;;2.30;99.90;;;;;;5053846;28;20262;-68
2022/01/31 13:14:09;;;;;;;6.60;4.47;;;2.20;99.90;;;;;;5055888;28;20251;-70
2022/01/31 13:16:45;;;;;;;6.87;4.90;;;2.10;99.90;;;;;;5056012;28;20617;-68
2022/01/31 13:19:18;;;;;;;6.07;4.30;;;2.10;99.90;;;;;;5054414;28;20201;-69
2022/01/31 13:21:44;;;;;;;8.53;6.57;;;2.10;99.90;;;;;;5055023;28;20754;-70
2022/01/31 13:24:13;;;;;;;11.83;5.67;;;2.00;99.90;;;;;;5054971;28;20704;-69
2022/01/31 13:26:50;;;;;;;7.97;5.43;;;2.00;99.90;;;;;;5056079;28;20201;-69